Time;durP1;ratioP1;P1;durP2;ratioP2;P2;SDS_P1;SDS_P2;PMS_P1;PMS_P2;Temp;Humidity;BMP_temperature;BMP_pressure;BME280_temperature;BME280_humidity;BME280_pressure;Samples;Min_cycle;Max_cycle;Signal;HPM_P1;HPM_P2
2022/06/27 00:02:06;;;;;;;;;;;21.50;99.90;;;;;;5054571;28;19924;-67
2022/06/27 00:04:32;;;;;;;;;;;21.50;99.90;;;;;;5054535;28;20160;-68
2022/06/27 00:06:57;;;;;;;;;;;21.50;99.90;;;;;;5054952;28;19923;-67
2022/06/27 00:09:23;;;;;;;;;;;21.50;99.90;;;;;;5054543;28;20007;-68
2022/06/27 00:11:48;;;;;;;;;;;21.40;99.90;;;;;;5054976;28;19956;-68
2022/06/27 00:14:14;;;;;;;;;;;21.40;99.90;;;;;;5054288;28;19999;-67
2022/06/27 00:16:39;;;;;;;;;;;21.40;99.90;;;;;;5054711;28;19912;-68
2022/06/27 00:19:05;;;;;;;;;;;21.40;99.90;;;;;;5054135;28;19920;-68
2022/06/27 00:21:30;;;;;;;;;;;21.40;99.90;;;;;;5054588;28;19974;-68
2022/06/27 00:23:56;;;;;;;;;;;21.40;99.90;;;;;;5054460;28;19913;-69
2022/06/27 00:26:21;;;;;;;;;;;21.40;99.90;;;;;;5054462;28;19917;-66
2022/06/27 00:28:47;;;;;;;;;;;21.40;99.90;;;;;;5054092;28;19924;-68
2022/06/27 00:31:12;;;;;;;;;;;21.40;99.90;;;;;;5054305;28;20396;-66
2022/06/27 00:33:38;;;;;;;;;;;21.40;99.90;;;;;;5054205;28;19912;-68
2022/06/27 00:36:03;;;;;;;;;;;21.40;99.90;;;;;;5054072;28;19967;-68
2022/06/27 00:38:29;;;;;;;;;;;21.40;99.90;;;;;;5053826;28;19920;-66
2022/06/27 00:40:54;;;;;;;;;;;21.40;99.90;;;;;;5053699;28;20302;-67
2022/06/27 00:43:20;;;;;;;;;;;21.40;99.90;;;;;;5053806;28;19917;-67
2022/06/27 00:45:45;;;;;;;;;;;21.40;99.90;;;;;;5053914;28;20003;-67
2022/06/27 00:48:11;;;;;;;;;;;21.30;99.90;;;;;;5053638;28;20336;-67
2022/06/27 00:50:36;;;;;;;;;;;21.30;99.90;;;;;;5053954;28;19916;-68
2022/06/27 00:53:02;;;;;;;;;;;21.30;99.90;;;;;;5053580;28;20449;-68
2022/06/27 00:55:28;;;;;;;;;;;21.20;99.90;;;;;;5053998;28;19913;-68
2022/06/27 00:57:53;;;;;;;;;;;21.20;99.90;;;;;;5053606;28;20015;-68
2022/06/27 01:00:19;;;;;;;;;;;21.10;99.90;;;;;;5053452;28;20014;-67
2022/06/27 01:02:44;;;;;;;;;;;21.10;99.90;;;;;;5053357;28;19920;-68
2022/06/27 01:05:11;;;;;;;;;;;21.10;99.90;;;;;;5053432;28;19916;-67
2022/06/27 01:07:37;;;;;;;;;;;21.10;99.90;;;;;;5053420;28;20016;-67
2022/06/27 01:10:03;;;;;;;;;;;21.10;99.90;;;;;;5053139;28;19913;-68
2022/06/27 01:12:29;;;;;;;;;;;21.00;99.90;;;;;;5052213;28;19920;-67
2022/06/27 01:14:54;;;;;;;;;;;21.00;99.90;;;;;;5053173;28;19910;-67
2022/06/27 01:17:20;;;;;;;;;;;21.00;99.90;;;;;;5053686;28;20357;-67
2022/06/27 01:19:45;;;;;;;;;;;21.00;99.90;;;;;;5052998;28;19999;-67
2022/06/27 01:22:11;;;;;;;;;;;21.00;99.90;;;;;;5053108;28;19917;-67
2022/06/27 01:24:37;;;;;;;;;;;20.90;99.90;;;;;;5052945;28;19920;-67
2022/06/27 01:27:03;;;;;;;;;;;20.80;99.90;;;;;;5053421;28;19919;-67
2022/06/27 01:29:28;;;;;;;;;;;20.90;99.90;;;;;;5052875;28;19912;-67
2022/06/27 01:31:54;;;;;;;;;;;20.90;99.90;;;;;;5053424;28;20428;-68
2022/06/27 01:34:20;;;;;;;;;;;20.80;99.90;;;;;;5052731;28;19912;-67
2022/06/27 01:36:46;;;;;;;;;;;20.80;99.90;;;;;;5052753;28;20384;-67
2022/06/27 01:39:15;;;;;;;;;;;20.80;99.90;;;;;;5052721;28;19913;-68
2022/06/27 01:41:41;;;;;;;;;;;20.80;99.90;;;;;;5053236;28;20007;-68
2022/06/27 01:44:08;;;;;;;;;;;20.80;99.90;;;;;;5052868;28;19916;-67
2022/06/27 01:46:38;;;;;;;;;;;20.80;99.90;;;;;;5053107;28;19916;-68
2022/06/27 01:49:03;;;;;;;;;;;20.80;99.90;;;;;;5052853;28;20007;-67
2022/06/27 01:51:28;;;;;;;;;;;20.80;99.90;;;;;;5052572;28;20398;-68
2022/06/27 01:53:54;;;;;;;;;;;20.80;99.90;;;;;;5052516;28;19917;-68
2022/06/27 01:56:20;;;;;;;;;;;20.80;99.90;;;;;;5052832;28;20312;-68
2022/06/27 01:58:45;;;;;;;;;;;20.80;99.90;;;;;;5052708;28;19986;-68
2022/06/27 02:01:11;;;;;;;;;;;20.80;99.90;;;;;;5052786;28;19924;-68
2022/06/27 02:03:36;;;;;;;;;;;20.80;99.90;;;;;;5052619;28;19913;-68
2022/06/27 02:06:02;;;;;;;;;;;20.80;99.90;;;;;;5052493;28;19913;-68
2022/06/27 02:08:27;;;;;;;;;;;20.80;99.90;;;;;;5052577;28;20364;-67
2022/06/27 02:10:53;;;;;;;;;;;20.80;99.90;;;;;;5034363;28;19994;-68
2022/06/27 02:13:18;;;;;;;;;;;20.80;99.90;;;;;;5052189;28;19928;-68
2022/06/27 02:16:06;;;;;;;;;;;20.70;99.90;;;;;;5034440;28;20183;-67
2022/06/27 02:18:32;;;;;;;;;;;20.70;99.90;;;;;;5052336;28;19958;-68
2022/06/27 02:20:58;;;;;;;;;;;20.70;99.90;;;;;;5052018;28;20295;-67
2022/06/27 02:23:24;;;;;;;;;;;20.70;99.90;;;;;;5051958;28;19960;-68
2022/06/27 02:25:50;;;;;;;;;;;20.70;99.90;;;;;;5052010;28;19971;-69
2022/06/27 02:28:16;;;;;;;;;;;20.70;99.90;;;;;;5051940;28;19913;-68
2022/06/27 02:30:42;;;;;;;;;;;20.60;99.90;;;;;;5052164;28;19913;-67
2022/06/27 02:33:08;;;;;;;;;;;20.70;99.90;;;;;;5051727;28;20228;-67
2022/06/27 02:35:34;;;;;;;;;;;20.70;99.90;;;;;;5051832;28;19946;-67
2022/06/27 02:38:00;;;;;;;;;;;20.70;99.90;;;;;;5051991;28;20363;-67
2022/06/27 02:40:29;;;;;;;;;;;20.70;99.90;;;;;;5051829;28;20273;-68
2022/06/27 02:42:57;;;;;;;;;;;20.70;99.90;;;;;;5051665;28;20368;-67
2022/06/27 02:45:25;;;;;;;;;;;20.70;99.90;;;;;;5051638;28;19964;-67
2022/06/27 02:47:53;;;;;;;;;;;20.70;99.90;;;;;;5051750;28;19920;-68
2022/06/27 02:50:19;;;;;;;;;;;20.70;99.90;;;;;;5051669;28;20020;-68
2022/06/27 02:52:47;;;;;;;;;;;20.70;99.90;;;;;;5051662;28;19956;-67
2022/06/27 02:55:14;;;;;;;;;;;20.60;99.90;;;;;;5051396;28;19939;-68
2022/06/27 02:57:53;;;;;;;;;;;20.60;99.90;;;;;;5051594;28;19917;-68
2022/06/27 03:00:19;;;;;;;;;;;20.60;99.90;;;;;;5051560;28;20424;-68
2022/06/27 03:02:45;;;;;;;;;;;20.60;99.90;;;;;;5051479;28;19920;-68
2022/06/27 03:05:11;;;;;;;;;;;20.60;99.90;;;;;;5051224;28;19932;-68
2022/06/27 03:07:37;;;;;;;;;;;20.60;99.90;;;;;;5051506;28;20292;-68
2022/06/27 03:10:03;;;;;;;;;;;20.70;99.90;;;;;;5051073;28;19920;-67
2022/06/27 03:12:28;;;;;;;;;;;20.70;99.90;;;;;;5051394;28;20225;-68
2022/06/27 03:14:54;;;;;;;;;;;20.70;99.90;;;;;;5051477;28;19916;-67
2022/06/27 03:17:19;;;;;;;;;;;20.70;99.90;;;;;;5051776;28;19920;-67
2022/06/27 03:19:44;;;;;;;;;;;20.80;99.90;;;;;;5051104;28;20004;-68
2022/06/27 03:22:10;;;;;;;;;;;20.80;99.90;;;;;;5051481;28;19967;-68
2022/06/27 03:24:36;;;;;;;;;;;20.90;99.90;;;;;;5051078;28;20380;-68
2022/06/27 03:27:01;;;;;;;;;;;21.00;99.90;;;;;;5051365;28;19920;-67
2022/06/27 03:29:27;;;;;;;;;;;21.00;99.90;;;;;;5051329;28;20372;-68
2022/06/27 03:31:52;;;;;;;;;;;21.10;99.90;;;;;;5051054;28;20369;-68
2022/06/27 03:34:18;;;;;;;;;;;21.20;99.90;;;;;;5051088;28;19917;-68
2022/06/27 03:36:44;;;;;;;;;;;21.20;99.90;;;;;;5035913;28;19920;-68
2022/06/27 03:39:11;;;;;;;;;;;21.30;99.90;;;;;;5037157;28;19917;-68
2022/06/27 03:41:37;;;;;;;;;;;21.30;99.90;;;;;;5055361;28;20024;-69
2022/06/27 03:44:04;;;;;;;;;;;21.30;99.90;;;;;;5055352;28;19912;-67
2022/06/27 03:46:29;;;;;;;;;;;21.30;99.90;;;;;;5055213;28;19912;-68
2022/06/27 03:51:39;;;;;;;;;;;21.30;99.90;;;;;;5055584;28;19936;-67
2022/06/27 03:54:04;;;;;;;;;;;21.30;99.90;;;;;;5054808;28;19913;-68
2022/06/27 03:56:30;;;;;;;;;;;21.30;99.90;;;;;;5055112;28;19920;-67
2022/06/27 03:58:55;;;;;;;;;;;21.30;99.90;;;;;;5054707;28;19913;-68
2022/06/27 04:01:21;;;;;;;;;;;21.40;99.90;;;;;;5036995;28;20296;-67
2022/06/27 04:03:46;;;;;;;;;;;21.40;99.90;;;;;;5055088;28;20254;-67
2022/06/27 04:06:12;;;;;;;;;;;21.40;99.90;;;;;;5054919;28;20439;-68
2022/06/27 04:08:37;;;;;;;;;;;21.40;99.90;;;;;;5054740;28;19923;-68
2022/06/27 04:11:03;;;;;;;;;;;21.50;99.90;;;;;;5054821;28;20012;-68
2022/06/27 04:13:28;;;;;;;;;;;21.50;99.90;;;;;;5054602;28;20003;-67
2022/06/27 04:15:54;;;;;;;;;;;21.50;99.90;;;;;;5054635;28;20241;-67
2022/06/27 04:18:19;;;;;;;;;;;21.60;99.90;;;;;;5054444;28;20011;-67
2022/06/27 04:20:45;;;;;;;;;;;21.60;99.90;;;;;;5054639;28;20383;-68
2022/06/27 04:23:10;;;;;;;;;;;21.50;99.90;;;;;;5054270;28;20351;-68
2022/06/27 04:25:36;;;;;;;;;;;21.60;99.90;;;;;;5054298;28;19915;-67
2022/06/27 04:28:02;;;;;;;;;;;21.60;99.90;;;;;;5054328;28;20384;-67
2022/06/27 04:30:28;;;;;;;;;;;21.60;99.90;;;;;;5054277;28;19913;-68
2022/06/27 04:32:54;;;;;;;;;;;21.60;99.90;;;;;;5054066;28;19916;-68
2022/06/27 04:35:20;;;;;;;;;;;21.60;99.90;;;;;;5036046;28;20004;-68
2022/06/27 04:37:45;;;;;;;;;;;21.60;99.90;;;;;;5053830;28;20080;-68
2022/06/27 04:40:11;;;;;;;;;;;21.70;99.90;;;;;;5053964;28;20003;-68
2022/06/27 04:42:37;;;;;;;;;;;21.70;99.90;;;;;;5054345;28;19920;-68
2022/06/27 04:45:03;;;;;;;;;;;21.70;99.90;;;;;;5053878;28;19948;-68
2022/06/27 04:47:29;;;;;;;;;;;21.80;99.90;;;;;;5035474;28;19913;-67
2022/06/27 04:49:55;;;;;;;;;;;21.90;99.90;;;;;;5053917;28;19916;-68
2022/06/27 04:52:20;;;;;;;;;;;22.00;99.90;;;;;;5054132;28;20148;-68
2022/06/27 04:54:46;;;;;;;;;;;22.10;99.90;;;;;;5035823;28;19916;-68
2022/06/27 04:57:12;;;;;;;;;;;22.20;99.90;;;;;;5053749;28;19913;-68
2022/06/27 04:59:38;;;;;;;;;;;22.30;99.90;;;;;;5053708;28;19928;-66
2022/06/27 05:02:04;;;;;;;;;;;22.30;99.90;;;;;;5054311;28;19913;-68
2022/06/27 05:04:30;;;;;;;;;;;22.30;99.90;;;;;;5053739;28;19921;-67
2022/06/27 05:06:55;;;;;;;;;;;22.30;99.90;;;;;;5053898;28;19967;-67
2022/06/27 05:09:21;;;;;;;;;;;22.30;99.90;;;;;;5053833;28;19913;-67
2022/06/27 05:11:50;;;;;;;;;;;22.40;99.90;;;;;;5053880;28;20387;-68
2022/06/27 05:14:16;;;;;;;;;;;22.50;99.90;;;;;;5053348;28;20016;-67
2022/06/27 05:16:41;;;;;;;;;;;22.50;99.90;;;;;;5053680;28;19959;-67
2022/06/27 05:19:07;;;;;;;;;;;22.50;99.90;;;;;;5053260;28;20387;-68
2022/06/27 05:21:33;;;;;;;;;;;22.60;99.90;;;;;;5053775;28;20011;-67
2022/06/27 05:23:58;;;;;;;;;;;22.70;99.90;;;;;;5053246;28;19956;-68
2022/06/27 05:26:24;;;;;;;;;;;22.70;99.90;;;;;;5053326;28;19959;-67
2022/06/27 05:28:49;;;;;;;;;;;22.60;99.90;;;;;;5053225;28;20462;-67
2022/06/27 05:31:15;;;;;;;;;;;22.70;99.90;;;;;;5053844;28;19913;-67
2022/06/27 05:33:41;;;;;;;;;;;22.70;99.90;;;;;;5053031;28;19913;-68
2022/06/27 05:36:07;;;;;;;;;;;22.70;99.90;;;;;;5053038;28;20293;-67
2022/06/27 05:38:32;;;;;;;;;;;22.70;99.90;;;;;;5052848;28;19919;-67
2022/06/27 05:40:59;;;;;;;;;;;22.80;99.90;;;;;;5052897;28;19924;-67
2022/06/27 05:43:25;;;;;;;;;;;22.90;99.90;;;;;;5052808;28;19958;-67
2022/06/27 05:45:50;;;;;;;;;;;23.10;99.90;;;;;;5052875;28;20344;-67
2022/06/27 05:48:17;;;;;;;;;;;23.30;99.90;;;;;;5052903;28;19920;-67
2022/06/27 05:50:42;;;;;;;;;;;23.30;99.90;;;;;;5052867;28;19919;-67
2022/06/27 05:53:08;;;;;;;;;;;23.40;99.90;;;;;;5034770;28;19917;-68
2022/06/27 05:55:33;;;;;;;;;;;23.40;99.90;;;;;;5052990;28;19917;-68
2022/06/27 05:58:00;;;;;;;;;;;23.30;99.90;;;;;;5052388;28;19948;-67
2022/06/27 06:00:27;;;;;;;;;;;23.30;99.90;;;;;;5052880;28;19921;-67
2022/06/27 06:02:53;;;;;;;;;;;23.30;99.90;;;;;;5052892;28;19920;-68
2022/06/27 06:05:19;;;;;;;;;;;23.30;99.90;;;;;;5052528;28;19927;-68
2022/06/27 06:07:45;;;;;;;;;;;23.50;99.90;;;;;;5052634;28;20003;-67
2022/06/27 06:10:11;;;;;;;;;;;23.60;99.90;;;;;;5052299;28;20003;-67
2022/06/27 06:12:37;;;;;;;;;;;23.80;99.90;;;;;;5052327;28;19913;-67
2022/06/27 06:15:03;;;;;;;;;;;23.90;99.90;;;;;;5052222;28;19955;-67
2022/06/27 06:17:31;;;;;;;;;;;24.00;99.90;;;;;;5052668;28;20011;-67
2022/06/27 06:19:56;;;;;;;;;;;24.10;99.90;;;;;;5052052;28;19916;-68
2022/06/27 06:22:22;;;;;;;;;;;24.20;99.90;;;;;;5034365;28;19912;-68
2022/06/27 06:24:49;;;;;;;;;;;24.20;99.90;;;;;;5034123;28;19924;-67
2022/06/27 06:27:15;;;;;;;;;;;24.20;99.90;;;;;;5051765;28;19963;-67
2022/06/27 06:29:41;;;;;;;;;;;24.20;99.90;;;;;;5051890;28;20470;-67
2022/06/27 06:32:07;;;;;;;;;;;24.10;99.90;;;;;;5052472;28;19913;-66
2022/06/27 06:34:33;;;;;;;;;;;24.10;99.90;;;;;;5051903;28;19920;-67
2022/06/27 06:36:58;;;;;;;;;;;24.10;99.90;;;;;;5051764;28;20321;-67
2022/06/27 06:39:24;;;;;;;;;;;24.10;99.90;;;;;;5051653;28;19920;-67
2022/06/27 06:41:50;;;;;;;;;;;24.10;99.90;;;;;;5052156;28;19920;-68
2022/06/27 06:44:17;;;;;;;;;;;24.20;99.90;;;;;;5052094;28;19913;-67
2022/06/27 06:46:43;;;;;;;;;;;24.30;99.90;;;;;;5052178;28;20007;-67
2022/06/27 06:49:09;;;;;;;;;;;24.30;99.90;;;;;;5051503;28;19913;-68
2022/06/27 06:51:35;;;;;;;;;;;24.40;99.90;;;;;;5052023;28;19919;-67
2022/06/27 06:54:02;;;;;;;;;;;24.50;99.90;;;;;;5051652;28;19939;-67
2022/06/27 06:56:30;;;;;;;;;;;24.50;99.90;;;;;;5051853;28;20372;-67
2022/06/27 06:58:57;;;;;;;;;;;24.60;99.90;;;;;;5051285;28;19919;-67
2022/06/27 07:01:22;;;;;;;;;;;24.70;99.90;;;;;;5051703;28;19927;-68
2022/06/27 07:03:49;;;;;;;;;;;24.80;99.90;;;;;;5051391;28;20306;-67
2022/06/27 07:06:15;;;;;;;;;;;25.00;99.90;;;;;;5051329;28;19913;-69
2022/06/27 07:08:41;;;;;;;;;;;25.00;99.90;;;;;;5051527;28;19936;-69
2022/06/27 07:11:07;;;;;;;;;;;25.10;99.90;;;;;;5050561;28;19913;-68
2022/06/27 07:13:33;;;;;;;;;;;25.20;99.90;;;;;;5033373;28;19916;-68
2022/06/27 07:15:58;;;;;;;;;;;25.30;99.90;;;;;;5051539;28;19962;-68
2022/06/27 07:18:25;;;;;;;;;;;25.40;99.90;;;;;;5051423;28;19916;-68
2022/06/27 07:20:50;;;;;;;;;;;25.50;99.90;;;;;;5051460;28;19917;-68
2022/06/27 07:23:17;;;;;;;;;;;25.60;99.90;;;;;;5051233;28;20365;-68
2022/06/27 07:25:42;;;;;;;;;;;25.70;99.90;;;;;;5051352;28;19944;-68
2022/06/27 07:28:08;;;;;;;;;;;25.90;99.90;;;;;;5051126;28;19986;-68
2022/06/27 07:30:35;;;;;;;;;;;25.90;99.90;;;;;;5051063;28;20020;-69
2022/06/27 07:33:00;;;;;;;;;;;26.00;99.90;;;;;;5051169;28;19936;-68
2022/06/27 07:35:29;;;;;;;;;;;26.20;99.90;;;;;;5050866;28;19913;-68
2022/06/27 07:37:54;;;;;;;;;;;26.30;99.90;;;;;;5051138;28;19921;-68
2022/06/27 07:40:20;;;;;;;;;;;26.40;99.90;;;;;;5051171;28;19924;-67
2022/06/27 07:42:47;;;;;;;;;;;26.60;99.90;;;;;;5051187;28;20297;-68
2022/06/27 07:45:14;;;;;;;;;;;26.70;99.90;;;;;;5051256;28;19915;-69
2022/06/27 07:47:41;;;;;;;;;;;26.90;99.90;;;;;;5051226;28;19913;-69
2022/06/27 07:50:07;;;;;;;;;;;27.00;99.90;;;;;;5032755;28;19948;-69
2022/06/27 07:53:11;;;;;;;;;;;27.10;99.90;;;;;;5051166;28;19940;-69
2022/06/27 07:55:19;;;;;;;;;;;27.10;99.90;;;;;;5050705;28;19944;-69
2022/06/27 07:57:46;;;;;;;;;;;27.20;99.90;;;;;;5051109;28;19913;-68
2022/06/27 08:00:12;;;;;;;;;;;27.20;99.90;;;;;;5050615;28;20422;-68
2022/06/27 08:02:38;;;;;;;;;;;27.40;99.90;;;;;;5032945;28;20346;-68
2022/06/27 08:05:04;;;;;;;;;;;27.60;99.90;;;;;;5050661;28;19956;-68
2022/06/27 08:07:30;;;;;;;;;;;27.80;99.90;;;;;;5050775;28;19922;-68
2022/06/27 08:09:55;;;;;;;;;;;28.00;99.90;;;;;;5050954;28;19913;-68
2022/06/27 08:12:21;;;;;;;;;;;28.20;99.90;;;;;;5051353;28;20412;-67
2022/06/27 08:14:49;;;;;;;;;;;28.30;99.90;;;;;;5051115;28;20403;-69
2022/06/27 08:17:15;;;;;;;;;;;28.30;99.90;;;;;;5051224;28;19920;-68
2022/06/27 08:19:40;;;;;;;;;;;28.30;99.90;;;;;;5050484;28;20284;-68
2022/06/27 08:22:06;;;;;;;;;;;28.20;99.90;;;;;;5052857;28;19932;-68
2022/06/27 08:24:32;;;;;;;;;;;28.30;99.90;;;;;;5054729;28;20059;-69
2022/06/27 08:26:59;;;;;;;;;;;28.60;99.90;;;;;;5054704;28;19917;-69
2022/06/27 08:29:27;;;;;;;;;;;28.90;99.90;;;;;;5054472;28;20016;-69
2022/06/27 08:31:52;;;;;;;;;;;29.20;99.90;;;;;;5036407;28;20330;-68
2022/06/27 08:34:20;;;;;;;;;;;29.40;99.90;;;;;;5053986;28;19921;-69
2022/06/27 08:36:45;;;;;;;;;;;29.60;99.90;;;;;;5036446;28;20285;-68
2022/06/27 08:39:15;;;;;;;;;;;29.70;99.90;;;;;;5054046;28;19957;-68
2022/06/27 08:41:41;;;;;;;;;;;29.80;99.90;;;;;;5054198;28;19916;-68
2022/06/27 08:44:08;;;;;;;;;;;29.90;99.90;;;;;;5054261;28;19939;-68
2022/06/27 08:46:33;;;;;;;;;;;29.70;99.90;;;;;;5054182;28;19913;-68
2022/06/27 08:48:59;;;;;;;;;;;29.50;99.90;;;;;;5053678;28;19917;-69
2022/06/27 08:51:25;;;;;;;;;;;29.40;99.90;;;;;;5053873;28;19920;-68
2022/06/27 08:53:52;;;;;;;;;;;29.30;99.90;;;;;;5053957;28;20411;-68
2022/06/27 08:56:19;;;;;;;;;;;29.30;99.60;;;;;;5053864;28;19921;-67
2022/06/27 08:58:46;;;;;;;;;;;29.30;99.40;;;;;;5053927;28;20388;-68
2022/06/27 09:01:13;;;;;;;;;;;29.20;99.50;;;;;;5053721;28;19924;-68
2022/06/27 09:03:39;;;;;;;;;;;29.30;99.50;;;;;;5053544;28;20011;-67
2022/06/27 09:06:06;;;;;;;;;;;29.30;99.20;;;;;;5053608;28;20007;-68
2022/06/27 09:08:34;;;;;;;;;;;29.20;99.70;;;;;;5035572;28;19920;-68
2022/06/27 09:11:00;;;;;;;;;;;29.10;99.80;;;;;;5053273;28;19924;-68
2022/06/27 09:13:27;;;;;;;;;;;29.00;99.90;;;;;;5053675;28;19912;-68
2022/06/27 09:15:57;;;;;;;;;;;28.90;99.90;;;;;;5035457;28;19959;-68
2022/06/27 09:18:36;;;;;;;;;;;29.30;99.60;;;;;;5053475;28;19913;-68
2022/06/27 09:21:03;;;;;;;;;;;29.60;99.10;;;;;;5053364;28;19921;-68
2022/06/27 09:23:48;;;;;;;;;;;29.30;99.10;;;;;;5053390;28;19913;-68
2022/06/27 09:26:18;;;;;;;;;;;28.90;99.60;;;;;;5053362;28;19987;-68
2022/06/27 09:29:02;;;;;;;;;;;28.80;99.90;;;;;;5035137;28;19913;-68
2022/06/27 09:31:32;;;;;;;;;;;29.20;99.30;;;;;;5052894;28;20193;-69
2022/06/27 09:34:16;;;;;;;;;;;30.00;98.60;;;;;;5051826;28;19935;-68
2022/06/27 09:36:45;;;;;;;;;;;30.60;97.10;;;;;;5052798;28;20032;-69
2022/06/27 09:39:17;;;;;;;;;;;30.70;97.00;;;;;;5052933;28;19913;-68
2022/06/27 09:41:45;;;;;;;;;;;30.50;97.80;;;;;;5053156;28;19948;-69
2022/06/27 09:44:11;;;;;;;;;;;30.10;97.90;;;;;;5052971;28;19920;-68
2022/06/27 09:46:42;;;;;;;;;;;30.00;97.90;;;;;;5034745;28;20284;-67
2022/06/27 09:49:12;;;;;;;;;;;30.40;97.90;;;;;;5053041;28;20004;-69
2022/06/27 09:51:39;;;;;;;;;;;30.50;97.30;;;;;;5053037;28;19940;-67
2022/06/27 09:54:20;;;;;;;;;;;30.40;96.50;;;;;;5052497;28;19912;-68
2022/06/27 09:56:50;;;;;;;;;;;30.20;96.40;;;;;;5052890;28;19913;-68
2022/06/27 09:59:15;;;;;;;;;;;30.00;96.60;;;;;;5034582;28;19998;-67
2022/06/27 10:01:42;;;;;;;;;;;29.80;96.40;;;;;;5052598;28;19962;-67
2022/06/27 10:04:08;;;;;;;;;;;30.00;96.20;;;;;;5052320;28;20383;-67
2022/06/27 10:06:39;;;;;;;;;;;30.50;95.90;;;;;;5052467;28;19916;-67
2022/06/27 10:09:08;;;;;;;;;;;30.90;95.10;;;;;;5052230;28;20353;-67
2022/06/27 10:11:35;;;;;;;;;;;31.40;95.00;;;;;;5052760;28;20110;-67
2022/06/27 10:14:10;;;;;;;;;;;31.80;94.20;;;;;;5052073;28;19913;-67
2022/06/27 10:16:48;;;;;;;;;;;32.20;93.70;;;;;;5052416;28;19994;-68
2022/06/27 10:19:14;;;;;;;;;;;32.40;92.90;;;;;;5034233;28;19964;-68
2022/06/27 10:21:41;;;;;;;;;;;31.90;92.80;;;;;;5052047;28;20014;-67
2022/06/27 10:24:18;;;;;;;;;;;31.00;92.90;;;;;;5051875;28;19924;-67
2022/06/27 10:26:44;;;;;;;;;;;30.30;93.60;;;;;;5052122;28;19916;-68
2022/06/27 10:29:34;;;;;;;;;;;30.50;94.30;;;;;;5052031;28;19978;-66
2022/06/27 10:32:01;;;;;;;;;;;30.70;93.90;;;;;;5033657;28;19920;-67
2022/06/27 10:34:39;;;;;;;;;;;31.10;93.00;;;;;;5052081;28;20285;-67
2022/06/27 10:37:26;;;;;;;;;;;31.00;92.80;;;;;;5033773;28;19920;-66
2022/06/27 10:40:15;;;;;;;;;;;30.40;93.00;;;;;;5051824;28;20403;-65
2022/06/27 10:42:43;;;;;;;;;;;30.60;93.20;;;;;;5051772;28;19924;-67
2022/06/27 10:45:29;;;;;;;;;;;31.30;92.70;;;;;;5051609;28;19920;-67
2022/06/27 10:47:55;;;;;;;;;;;31.80;92.30;;;;;;5051568;28;19943;-67
2022/06/27 10:50:22;;;;;;;;;;;32.50;91.70;;;;;;5051737;28;19913;-68
2022/06/27 10:52:48;;;;;;;;;;;33.10;90.70;;;;;;5051305;28;19913;-67
2022/06/27 10:55:24;;;;;;;;;;;33.50;89.30;;;;;;5051596;28;19916;-67
2022/06/27 10:57:50;;;;;;;;;;;33.80;88.30;;;;;;5033421;28;19913;-67
2022/06/27 11:00:42;;;;;;;;;;;33.70;87.90;;;;;;5051399;28;19931;-67
2022/06/27 11:03:09;;;;;;;;;;;33.10;88.60;;;;;;5048807;28;19917;-67
2022/06/27 11:05:51;;;;;;;;;;;32.40;86.70;;;;;;5051336;28;19920;-67
2022/06/27 11:08:16;;;;;;;;;;;32.60;86.20;;;;;;5051090;28;19913;-68
2022/06/27 11:10:45;;;;;;;;;;;33.10;86.10;;;;;;5051037;28;20373;-67
2022/06/27 11:13:11;;;;;;;;;;;33.70;83.70;;;;;;5051420;28;19924;-67
2022/06/27 11:15:36;;;;;;;;;;;34.00;79.80;;;;;;5051396;28;19913;-68
2022/06/27 11:18:06;;;;;;;;;;;34.10;78.60;;;;;;5051294;28;20297;-68
2022/06/27 11:20:32;;;;;;;;;;;34.10;76.30;;;;;;5051177;28;19917;-67
2022/06/27 11:22:58;;;;;;;;;;;33.90;75.80;;;;;;5033371;28;20288;-67
2022/06/27 11:25:27;;;;;;;;;;;34.00;75.20;;;;;;5016721;28;19913;-67
2022/06/27 11:31:57;;;;;;;;;;;34.10;74.80;;;;;;5050970;28;19913;-67
2022/06/27 11:33:30;;;;;;;;;;;34.30;71.80;;;;;;5051415;28;19936;-67
2022/06/27 11:35:56;;;;;;;;;;;34.20;70.60;;;;;;5051077;28;19917;-67
2022/06/27 11:38:25;;;;;;;;;;;33.90;70.50;;;;;;5032992;28;19913;-68
2022/06/27 11:41:20;;;;;;;;;;;33.50;70.70;;;;;;5050764;28;19917;-68
2022/06/27 11:43:56;;;;;;;;;;;33.50;71.30;;;;;;5042130;28;19913;-67
2022/06/27 11:46:25;;;;;;;;;;;33.70;71.00;;;;;;5051171;28;19912;-67
2022/06/27 11:48:53;;;;;;;;;;;33.40;71.10;;;;;;5032948;28;20289;-68
2022/06/27 11:51:24;;;;;;;;;;;33.20;71.90;;;;;;5032958;28;19928;-67
2022/06/27 11:53:54;;;;;;;;;;;33.20;71.60;;;;;;5050884;28;19967;-68
2022/06/27 11:56:20;;;;;;;;;;;33.00;72.20;;;;;;5051734;28;19924;-68
2022/06/27 11:58:49;;;;;;;;;;;32.90;72.50;;;;;;5054728;28;20281;-67
2022/06/27 12:01:14;;;;;;;;;;;33.00;72.80;;;;;;5054842;28;19959;-66
2022/06/27 12:03:40;;;;;;;;;;;33.40;72.70;;;;;;5054534;28;20335;-67
2022/06/27 12:06:15;;;;;;;;;;;33.50;72.00;;;;;;5054803;28;19919;-67
2022/06/27 12:09:01;;;;;;;;;;;33.30;72.40;;;;;;5054601;28;20007;-67
2022/06/27 12:11:29;;;;;;;;;;;33.30;72.00;;;;;;5054465;28;19912;-66
2022/06/27 12:13:59;;;;;;;;;;;32.50;72.50;;;;;;5054394;28;19920;-67
2022/06/27 12:16:24;;;;;;;;;;;32.20;73.50;;;;;;5054553;28;19959;-66
2022/06/27 12:18:51;;;;;;;;;;;32.00;73.80;;;;;;5054032;28;20394;-68
2022/06/27 12:21:21;;;;;;;;;;;31.90;74.90;;;;;;5054316;28;20011;-67
2022/06/27 12:23:48;;;;;;;;;;;32.10;75.80;;;;;;5054424;28;19963;-68
2022/06/27 12:26:13;;;;;;;;;;;32.10;76.00;;;;;;5036348;28;20357;-66
2022/06/27 12:28:40;;;;;;;;;;;31.90;76.00;;;;;;5054304;28;19963;-68
2022/06/27 12:31:05;;;;;;;;;;;31.70;76.90;;;;;;5054261;28;20300;-68
2022/06/27 12:33:31;;;;;;;;;;;31.60;77.60;;;;;;5035906;28;19966;-66
2022/06/27 12:35:56;;;;;;;;;;;31.40;76.10;;;;;;5053641;28;19923;-67
2022/06/27 12:38:22;;;;;;;;;;;31.10;76.70;;;;;;5054269;28;20395;-68
2022/06/27 12:40:48;;;;;;;;;;;31.00;77.50;;;;;;5053661;28;19967;-68
2022/06/27 12:43:13;;;;;;;;;;;31.10;77.30;;;;;;5053652;28;20300;-68
2022/06/27 12:45:40;;;;;;;;;;;31.20;76.70;;;;;;5053744;28;19912;-67
2022/06/27 12:48:07;;;;;;;;;;;31.30;77.10;;;;;;5053655;28;19959;-67
2022/06/27 12:50:32;;;;;;;;;;;31.50;75.40;;;;;;5053716;28;19921;-67
2022/06/27 12:52:58;;;;;;;;;;;31.50;74.80;;;;;;5053674;28;19921;-67
2022/06/27 12:55:23;;;;;;;;;;;31.50;75.00;;;;;;5053593;28;19917;-67
2022/06/27 12:57:49;;;;;;;;;;;31.20;74.40;;;;;;5035647;28;19962;-66
2022/06/27 13:00:15;;;;;;;;;;;31.00;74.90;;;;;;5053485;28;19913;-66
2022/06/27 13:02:40;;;;;;;;;;;30.70;75.60;;;;;;5053896;28;20012;-67
2022/06/27 13:05:06;;;;;;;;;;;30.70;76.40;;;;;;5053574;28;20349;-66
2022/06/27 13:07:31;;;;;;;;;;;30.70;76.80;;;;;;5053753;28;20306;-66
2022/06/27 13:09:57;;;;;;;;;;;30.90;77.00;;;;;;5053578;28;19975;-67
2022/06/27 13:12:22;;;;;;;;;;;31.00;76.80;;;;;;5053237;28;19912;-67
2022/06/27 13:14:48;;;;;;;;;;;31.10;75.70;;;;;;5053255;28;19928;-68
2022/06/27 13:17:13;;;;;;;;;;;31.00;75.20;;;;;;5054070;28;20371;-67
2022/06/27 13:19:39;;;;;;;;;;;30.90;75.80;;;;;;5053105;28;19917;-66
2022/06/27 13:22:04;;;;;;;;;;;30.90;76.00;;;;;;5035360;28;19944;-67
2022/06/27 13:24:30;;;;;;;;;;;30.80;75.90;;;;;;5053098;28;19920;-66
2022/06/27 13:26:55;;;;;;;;;;;30.70;75.70;;;;;;5053438;28;19959;-66
2022/06/27 13:29:22;;;;;;;;;;;30.70;75.70;;;;;;5052788;28;20439;-67
2022/06/27 13:31:49;;;;;;;;;;;30.70;75.70;;;;;;5053410;28;19940;-67
2022/06/27 13:34:15;;;;;;;;;;;30.70;75.80;;;;;;5053183;28;19913;-67
2022/06/27 13:36:40;;;;;;;;;;;30.70;75.30;;;;;;5052689;28;19927;-66
2022/06/27 13:39:06;;;;;;;;;;;30.50;75.40;;;;;;5053024;28;19970;-67
2022/06/27 13:41:31;;;;;;;;;;;30.40;76.40;;;;;;5052912;28;20020;-67
2022/06/27 13:43:57;;;;;;;;;;;30.30;77.00;;;;;;5052632;28;19912;-67
2022/06/27 13:46:22;;;;;;;;;;;30.20;77.30;;;;;;5052986;28;19917;-67
2022/06/27 13:48:48;;;;;;;;;;;30.20;77.70;;;;;;5052715;28;19920;-67
2022/06/27 13:51:13;;;;;;;;;;;30.20;78.50;;;;;;5052501;28;20370;-67
2022/06/27 13:53:39;;;;;;;;;;;30.30;78.60;;;;;;5052689;28;19917;-67
2022/06/27 13:56:04;;;;;;;;;;;30.40;78.70;;;;;;5052853;28;19959;-68
2022/06/27 13:58:31;;;;;;;;;;;30.40;77.50;;;;;;5052457;28;20295;-67
2022/06/27 14:00:57;;;;;;;;;;;30.40;78.10;;;;;;5052560;28;20364;-68
2022/06/27 14:03:22;;;;;;;;;;;30.40;78.80;;;;;;5052318;28;19970;-66
2022/06/27 14:05:48;;;;;;;;;;;30.30;78.70;;;;;;5052454;28;20364;-67
2022/06/27 14:08:13;;;;;;;;;;;30.20;78.70;;;;;;5052400;28;19913;-67
2022/06/27 14:10:54;;;;;;;;;;;30.10;79.00;;;;;;5052396;28;19917;-67
2022/06/27 14:13:20;;;;;;;;;;;30.00;79.40;;;;;;5052295;28;19917;-67
2022/06/27 14:15:46;;;;;;;;;;;29.80;80.20;;;;;;5052626;28;19963;-67
2022/06/27 14:18:11;;;;;;;;;;;29.80;80.00;;;;;;5052297;28;19920;-67
2022/06/27 14:20:37;;;;;;;;;;;29.70;80.50;;;;;;5051566;28;19968;-68
2022/06/27 14:23:02;;;;;;;;;;;29.60;81.10;;;;;;5052526;28;20008;-67